Time;durP1;ratioP1;P1;durP2;ratioP2;P2;SDS_P1;SDS_P2;PMS_P1;PMS_P2;Temp;Humidity;BMP_temperature;BMP_pressure;BME280_temperature;BME280_humidity;BME280_pressure;Samples;Min_cycle;Max_cycle;Signal;HPM_P1;HPM_P2
2020/12/11 00:01:26;;;;;;;68.53;20.02;;;;;;;11.59;59.82;99082.06;4392869;32;20106;-88
2020/12/11 00:03:52;;;;;;;70.45;20.62;;;;;;;11.08;59.79;99084.38;4405438;32;20118;-87
2020/12/11 00:06:21;;;;;;;52.85;22.05;;;;;;;11.18;59.80;99081.38;4392424;32;26697;-88
2020/12/11 00:08:47;;;;;;;79.80;27.17;;;;;;;11.14;59.79;99080.66;4393190;32;20127;-88
2020/12/11 00:11:12;;;;;;;60.17;20.12;;;;;;;10.77;59.78;99079.69;4393209;32;20480;-88
2020/12/11 00:13:37;;;;;;;41.03;19.23;;;;;;;10.90;59.78;99080.00;4406034;32;20137;-88
2020/12/11 00:16:05;;;;;;;34.05;17.87;;;;;;;10.87;59.78;99074.91;4393620;32;20094;-88
2020/12/11 00:18:30;;;;;;;84.72;19.60;;;;;;;11.15;59.79;99077.16;4406239;32;20106;-88
2020/12/11 00:20:58;;;;;;;56.28;18.65;;;;;;;11.13;59.79;99075.53;4392698;32;25796;-88
2020/12/11 00:23:24;;;;;;;56.85;17.80;;;;;;;11.31;59.81;99078.13;4395404;32;20137;-88
2020/12/11 00:25:49;;;;;;;66.22;19.92;;;;;;;11.22;59.80;99080.31;4395233;32;24405;-88
2020/12/11 00:28:14;;;;;;;58.50;18.52;;;;;;;11.00;59.79;99078.66;4395262;32;22115;-88
2020/12/11 00:30:40;;;;;;;111.47;20.95;;;;;;;11.10;59.79;99086.91;4395668;32;20471;-89
2020/12/11 00:33:05;;;;;;;56.63;18.58;;;;;;;10.90;59.78;99085.22;4395419;32;20173;-89
2020/12/11 00:35:31;;;;;;;106.90;24.77;;;;;;;10.99;59.79;99086.56;4395404;32;20162;-88
2020/12/11 00:37:56;;;;;;;73.50;22.98;;;;;;;10.72;59.77;99088.59;4395118;32;27540;-89
2020/12/11 00:40:22;;;;;;;57.03;19.73;;;;;;;10.96;59.79;99073.66;4395636;32;20157;-88
2020/12/11 00:42:47;;;;;;;43.20;18.25;;;;;;;10.89;59.78;99077.47;4394229;32;31734;-88
2020/12/11 00:45:13;;;;;;;53.92;17.60;;;;;;;10.62;59.76;99085.53;4394329;32;30116;-88
2020/12/11 00:47:38;;;;;;;69.03;17.90;;;;;;;11.02;59.79;99076.00;4394850;32;20478;-88
2020/12/11 00:50:03;;;;;;;41.85;17.02;;;;;;;10.99;59.79;99082.19;4393938;32;29826;-88
2020/12/11 00:52:29;;;;;;;57.90;19.35;;;;;;;10.80;59.78;99073.50;4394870;32;26193;-88
2020/12/11 00:54:54;;;;;;;38.42;17.23;;;;;;;10.55;59.76;99078.06;4407428;32;20098;-87
2020/12/11 00:57:20;;;;;;;36.17;18.30;;;;;;;10.79;59.78;99083.97;4406867;32;30903;-88
2020/12/11 00:59:45;;;;;;;50.67;20.15;;;;;;;10.88;59.78;99073.13;4394637;32;20152;-88
2020/12/11 01:02:11;;;;;;;43.80;18.27;;;;;;;10.33;59.76;99085.91;4408558;32;20109;-87
2020/12/11 01:04:36;;;;;;;37.38;18.00;;;;;;;10.67;59.76;99081.00;4409733;32;26484;-89
2020/12/11 01:07:01;;;;;;;39.22;18.27;;;;;;;10.64;59.77;99073.28;4396810;32;32340;-90
2020/12/11 01:09:27;;;;;;;37.85;18.00;;;;;;;10.77;59.78;99071.03;4397244;32;27320;-89
2020/12/11 01:11:52;;;;;;;38.45;17.85;;;;;;;10.72;59.77;99073.84;4397570;32;20116;-89
2020/12/11 01:14:18;;;;;;;44.13;17.75;;;;;;;10.77;59.78;99079.69;4397956;32;20518;-89
2020/12/11 01:16:44;;;;;;;38.47;19.08;;;;;;;10.66;59.77;99070.66;4409712;32;26911;-89
2020/12/11 01:19:10;;;;;;;40.97;17.70;;;;;;;10.84;59.79;99071.59;4397479;32;20128;-89
2020/12/11 01:21:35;;;;;;;36.08;16.52;;;;;;;10.97;59.78;99073.59;4397378;32;20090;-89
2020/12/11 01:24:01;;;;;;;31.33;16.73;;;;;;;10.90;59.78;99072.19;4396971;32;27997;-86
2020/12/11 01:26:26;;;;;;;38.65;17.48;;;;;;;11.05;59.79;99065.44;4397050;32;20129;-88
2020/12/11 01:28:52;;;;;;;35.58;18.15;;;;;;;10.85;59.78;99053.28;4410269;32;20229;-89
2020/12/11 01:31:18;;;;;;;46.00;17.92;;;;;;;10.93;59.79;99053.81;4396663;32;29960;-89
2020/12/11 01:33:45;;;;;;;45.47;18.08;;;;;;;10.96;59.79;99051.09;4396518;32;20112;-88
2020/12/11 01:36:10;;;;;;;37.78;17.75;;;;;;;10.87;59.78;99061.03;4397312;32;20178;-88
2020/12/11 01:38:36;;;;;;;33.33;15.88;;;;;;;11.10;59.79;99073.88;4396418;32;31382;-88
2020/12/11 01:41:01;;;;;;;39.40;17.05;;;;;;;11.37;59.81;99059.62;4396512;32;23973;-88
2020/12/11 01:43:26;;;;;;;29.70;15.25;;;;;;;10.97;59.78;99070.16;4396724;32;28712;-88
2020/12/11 01:45:52;;;;;;;35.13;15.93;;;;;;;10.90;59.78;99071.34;4396690;32;32455;-88
2020/12/11 01:48:20;;;;;;;34.35;16.85;;;;;;;11.31;59.81;99067.69;4409668;32;21195;-90
2020/12/11 01:50:46;;;;;;;30.50;16.08;;;;;;;10.82;59.78;99073.41;4409539;32;25456;-90
2020/12/11 01:53:12;;;;;;;37.17;16.77;;;;;;;11.19;59.80;99070.87;4397332;32;20475;-90
2020/12/11 01:55:41;;;;;;;31.60;16.58;;;;;;;10.95;59.79;99085.84;4397723;32;20742;-90
2020/12/11 01:58:10;;;;;;;32.55;15.40;;;;;;;11.10;59.79;99076.50;4410440;32;20136;-91
2020/12/11 02:00:36;;;;;;;35.30;15.57;;;;;;;11.10;59.79;99078.25;4397587;32;20146;-90
2020/12/11 02:03:09;;;;;;;26.10;15.50;;;;;;;11.29;59.80;99079.97;4397347;32;20094;-90
2020/12/11 02:05:34;;;;;;;31.67;17.37;;;;;;;11.35;59.80;99078.81;4397289;32;20140;-90
2020/12/11 02:08:00;;;;;;;31.95;16.10;;;;;;;11.02;59.79;99081.22;4397012;32;20146;-90
2020/12/11 02:10:25;;;;;;;29.10;15.70;;;;;;;11.01;59.79;99075.16;4397441;32;20196;-90
2020/12/11 02:12:51;;;;;;;30.08;15.77;;;;;;;11.47;59.82;99078.28;4397490;32;20153;-89
2020/12/11 02:15:16;;;;;;;33.08;16.90;;;;;;;11.48;59.81;99077.34;4397361;32;20185;-89
2020/12/11 02:17:42;;;;;;;29.58;15.15;;;;;;;11.02;59.79;99076.84;4397614;32;20124;-89
2020/12/11 02:20:07;;;;;;;33.17;15.38;;;;;;;11.18;59.80;99073.56;4397303;32;20109;-89
2020/12/11 02:22:32;;;;;;;30.70;16.37;;;;;;;10.89;59.78;99080.91;4396988;32;20110;-89
2020/12/11 02:24:58;;;;;;;36.38;16.08;;;;;;;10.97;59.78;99086.63;4397145;32;20149;-89
2020/12/11 02:27:23;;;;;;;34.10;16.30;;;;;;;10.80;59.78;99089.09;4396561;32;21996;-89
2020/12/11 02:29:48;;;;;;;41.35;17.00;;;;;;;10.97;59.78;99084.03;4396753;32;20130;-89
2020/12/11 02:32:14;;;;;;;50.92;17.15;;;;;;;10.81;59.78;99093.41;4396753;32;20152;-88
2020/12/11 02:34:41;;;;;;;39.67;17.67;;;;;;;11.10;59.79;99086.91;4396870;32;20427;-90
2020/12/11 02:37:06;;;;;;;42.08;17.15;;;;;;;10.81;59.77;99087.34;4397092;32;21278;-89
2020/12/11 02:39:32;;;;;;;39.83;15.82;;;;;;;11.00;59.79;99088.25;4397271;32;20103;-89
2020/12/11 02:41:57;;;;;;;34.05;15.93;;;;;;;10.63;59.77;99084.63;4397171;32;20113;-90
2020/12/11 02:44:23;;;;;;;29.48;15.70;;;;;;;10.79;59.78;99090.03;4396879;32;20174;-89
2020/12/11 02:46:48;;;;;;;36.20;16.70;;;;;;;10.83;59.78;99081.16;4397116;32;20105;-89
2020/12/11 02:49:14;;;;;;;31.33;15.35;;;;;;;10.93;59.79;99086.84;4396877;32;20166;-90
2020/12/11 02:51:39;;;;;;;43.95;17.50;;;;;;;10.97;59.78;99078.81;4396736;32;20488;-89
2020/12/11 02:54:05;;;;;;;38.88;17.23;;;;;;;10.80;59.78;99086.50;4397007;32;20458;-89
2020/12/11 02:56:30;;;;;;;37.30;16.35;;;;;;;10.65;59.77;99088.03;4397072;32;20132;-89
2020/12/11 02:58:55;;;;;;;38.63;17.83;;;;;;;10.81;59.78;99085.59;4396778;32;20106;-89
2020/12/11 03:01:21;;;;;;;56.15;17.70;;;;;;;10.75;59.77;99086.72;4409193;32;22885;-90
2020/12/11 03:03:46;;;;;;;56.45;18.48;;;;;;;10.85;59.78;99081.94;4396937;32;20170;-90
2020/12/11 03:06:12;;;;;;;56.15;18.40;;;;;;;10.75;59.77;99083.25;4396669;32;20462;-89
2020/12/11 03:08:37;;;;;;;49.50;18.05;;;;;;;10.72;59.77;99079.03;4396848;32;20109;-89
2020/12/11 03:11:02;;;;;;;47.67;17.52;;;;;;;10.83;59.77;99081.16;4409090;32;20674;-89
2020/12/11 03:13:28;;;;;;;50.92;18.70;;;;;;;10.83;59.77;99070.75;4396534;32;20134;-89
2020/12/11 03:15:53;;;;;;;39.28;17.27;;;;;;;10.85;59.77;99075.88;4396943;32;20186;-89
2020/12/11 03:18:19;;;;;;;43.75;18.45;;;;;;;10.93;59.79;99077.25;4396551;32;20196;-89
2020/12/11 03:20:44;;;;;;;41.85;17.23;;;;;;;10.92;59.79;99072.97;4396489;32;20109;-89
2020/12/11 03:23:10;;;;;;;43.45;19.65;;;;;;;10.84;59.79;99069.00;4396137;32;20130;-89
2020/12/11 03:25:35;;;;;;;42.35;18.52;;;;;;;10.76;59.77;99070.19;4396748;32;20098;-89
2020/12/11 03:28:01;;;;;;;41.88;18.55;;;;;;;10.61;59.76;99070.84;4396454;32;20120;-88
2020/12/11 03:30:26;;;;;;;40.83;17.62;;;;;;;10.59;59.76;99079.63;4396317;32;20421;-86
2020/12/11 03:32:52;;;;;;;35.08;17.67;;;;;;;10.96;59.78;99073.66;4395943;32;20161;-87
2020/12/11 03:35:17;;;;;;;35.65;17.15;;;;;;;10.85;59.78;99071.53;4395576;32;20408;-87
2020/12/11 03:37:42;;;;;;;36.10;17.15;;;;;;;10.94;59.79;99072.91;4395693;32;20117;-87
2020/12/11 03:40:08;;;;;;;38.53;18.58;;;;;;;11.05;59.79;99063.69;4408589;32;20367;-87
2020/12/11 03:42:33;;;;;;;38.80;18.10;;;;;;;11.02;59.79;99079.44;4396365;32;20494;-88
2020/12/11 03:44:59;;;;;;;37.22;17.60;;;;;;;10.91;59.78;99079.09;4402931;32;175059;-87
2020/12/11 03:47:24;;;;;;;37.70;18.23;;;;;;;10.94;59.79;99075.50;4395799;32;20139;-89
2020/12/11 03:49:49;;;;;;;35.38;16.83;;;;;;;11.05;59.79;99074.09;4396308;32;20117;-88
2020/12/11 03:52:15;;;;;;;36.33;17.08;;;;;;;10.75;59.77;99078.06;4395763;32;20149;-88
2020/12/11 03:54:40;;;;;;;32.35;16.55;;;;;;;10.95;59.79;99065.00;4408711;32;20118;-87
2020/12/11 03:57:06;;;;;;;33.17;17.12;;;;;;;11.02;59.79;99063.81;4396414;32;20189;-87
2020/12/11 03:59:31;;;;;;;35.05;18.08;;;;;;;10.99;59.79;99063.13;4398330;32;20102;-88
2020/12/11 04:01:56;;;;;;;35.05;17.35;;;;;;;10.92;59.79;99065.16;4398106;32;20172;-86
2020/12/11 04:04:22;;;;;;;35.72;16.98;;;;;;;10.98;59.78;99064.03;4397266;32;28332;-88
2020/12/11 04:06:47;;;;;;;30.10;17.67;;;;;;;10.82;59.78;99065.59;4397289;32;28347;-88
2020/12/11 04:09:13;;;;;;;33.78;18.00;;;;;;;10.75;59.77;99065.88;4397636;32;20163;-87
2020/12/11 04:11:38;;;;;;;31.62;16.95;;;;;;;10.93;59.79;99066.84;4397875;32;20148;-88
2020/12/11 04:14:04;;;;;;;29.83;15.80;;;;;;;11.25;59.80;99057.56;4398342;32;20153;-89
2020/12/11 04:16:29;;;;;;;31.37;17.40;;;;;;;11.01;59.79;99056.06;4397845;32;20124;-88
2020/12/11 04:18:54;;;;;;;26.55;15.68;;;;;;;10.88;59.78;99060.12;4398132;32;20106;-88
2020/12/11 04:21:20;;;;;;;28.05;16.65;;;;;;;10.98;59.78;99058.81;4397883;32;20110;-88
2020/12/11 04:23:45;;;;;;;28.35;16.77;;;;;;;10.91;59.78;99058.25;4397752;32;20126;-86
2020/12/11 04:26:10;;;;;;;27.35;14.95;;;;;;;11.27;59.80;99047.94;4397717;32;20384;-88
2020/12/11 04:28:36;;;;;;;23.87;14.60;;;;;;;11.24;59.80;99061.09;4397688;32;20817;-87
2020/12/11 04:31:01;;;;;;;24.58;15.30;;;;;;;11.12;59.79;99066.88;4397295;32;20130;-87
2020/12/11 04:33:27;;;;;;;25.50;15.70;;;;;;;11.08;59.80;99066.13;4397346;32;24294;-87
2020/12/11 04:35:52;;;;;;;27.27;16.17;;;;;;;10.96;59.79;99056.28;4397606;32;20125;-90
2020/12/11 04:38:17;;;;;;;26.98;15.40;;;;;;;10.70;59.78;99060.03;4397986;32;20145;-88
2020/12/11 04:40:43;;;;;;;29.48;16.58;;;;;;;11.25;59.80;99062.78;4398056;32;20187;-88
2020/12/11 04:43:09;;;;;;;26.77;16.12;;;;;;;10.89;59.78;99060.09;4398075;32;20106;-87
2020/12/11 04:45:36;;;;;;;26.25;15.50;;;;;;;11.10;59.80;99062.63;4398236;32;20120;-88
2020/12/11 04:48:01;;;;;;;22.17;14.35;;;;;;;10.86;59.78;99065.41;4397943;32;20108;-88
2020/12/11 04:50:27;;;;;;;23.80;15.13;;;;;;;11.02;59.79;99066.44;4397587;32;20122;-89
2020/12/11 04:52:52;;;;;;;24.60;15.55;;;;;;;10.69;59.78;99058.34;4397675;32;20157;-89
2020/12/11 04:55:19;;;;;;;22.65;15.07;;;;;;;10.64;59.77;99064.66;4397406;32;20142;-89
2020/12/11 04:57:49;;;;;;;23.83;14.32;;;;;;;10.77;59.78;99058.00;4398117;32;20097;-90
2020/12/11 05:00:14;;;;;;;;;;;;;;;11.00;59.79;99057.84;4398315;32;20557;-90
2020/12/11 05:02:41;;;;;;;27.17;14.73;;;;;;;11.16;59.80;99060.59;4410062;32;20033;-90
2020/12/11 05:05:07;;;;;;;24.60;15.88;;;;;;;11.22;59.80;99051.66;4397463;32;20112;-88
2020/12/11 05:07:33;;;;;;;23.75;14.52;;;;;;;11.02;59.79;99060.38;4397262;32;20179;-89
2020/12/11 05:09:58;;;;;;;24.37;16.42;;;;;;;11.03;59.79;99067.28;4397103;32;20090;-89
2020/12/11 05:12:24;;;;;;;27.23;16.20;;;;;;;10.97;59.78;99063.19;4397197;32;25406;-89
2020/12/11 05:15:03;;;;;;;27.95;17.40;;;;;;;10.82;59.78;99068.22;4397796;32;20138;-90
2020/12/11 05:17:30;;;;;;;26.12;15.82;;;;;;;10.98;59.78;99069.25;4398174;32;20101;-90
2020/12/11 05:19:56;;;;;;;25.60;15.73;;;;;;;10.89;59.78;99072.25;4397908;32;20132;-90
2020/12/11 05:22:23;;;;;;;25.08;15.85;;;;;;;10.89;59.78;99077.47;4397608;32;20102;-91
2020/12/11 05:24:49;;;;;;;22.75;15.27;;;;;;;10.86;59.78;99074.97;4397596;32;20141;-91
2020/12/11 05:27:24;;;;;;;29.55;16.30;;;;;;;10.98;59.78;99077.06;4397938;32;20077;-91
2020/12/11 05:29:51;;;;;;;22.73;14.85;;;;;;;10.88;59.78;99080.97;4411602;32;20113;-91
2020/12/11 05:32:16;;;;;;;21.02;14.65;;;;;;;11.11;59.79;99087.75;4410457;32;20132;-89
2020/12/11 05:34:42;;;;;;;24.15;14.85;;;;;;;11.00;59.79;99089.09;4397698;32;20090;-88
2020/12/11 05:37:07;;;;;;;22.90;15.50;;;;;;;11.03;59.79;99080.28;4397054;32;20134;-90
2020/12/11 05:39:33;;;;;;;22.50;14.52;;;;;;;11.08;59.80;99086.13;4396615;32;20133;-87
2020/12/11 05:42:02;;;;;;;24.40;14.75;;;;;;;10.96;59.79;99084.09;4396896;32;20410;-86
2020/12/11 05:44:32;;;;;;;21.17;13.50;;;;;;;10.84;59.77;99082.84;4397017;32;20082;-86
2020/12/11 05:46:58;;;;;;;23.77;14.25;;;;;;;11.01;59.79;99082.12;4396913;32;20093;-86
2020/12/11 05:49:28;;;;;;;20.77;13.20;;;;;;;11.02;59.79;99079.44;4409704;32;20109;-88
2020/12/11 05:52:00;;;;;;;19.70;13.25;;;;;;;11.17;59.80;99085.75;4396685;32;20179;-87
2020/12/11 05:54:25;;;;;;;23.27;14.30;;;;;;;11.16;59.79;99086.66;4396955;32;20094;-88
2020/12/11 05:56:51;;;;;;;22.80;14.48;;;;;;;11.13;59.79;99089.41;4396238;32;26398;-87
2020/12/11 05:59:19;;;;;;;21.73;13.65;;;;;;;10.99;59.79;99087.41;4397099;32;20137;-87
2020/12/11 06:01:45;;;;;;;24.17;14.85;;;;;;;11.00;59.79;99085.63;4396780;32;20136;-87
2020/12/11 06:04:11;;;;;;;24.37;14.65;;;;;;;10.97;59.78;99086.63;4397003;32;20875;-87
2020/12/11 06:06:36;;;;;;;22.92;15.02;;;;;;;11.12;59.79;99082.50;4397033;32;20189;-87
2020/12/11 06:09:02;;;;;;;21.20;14.50;;;;;;;11.23;59.80;99085.44;4396529;32;20141;-87
2020/12/11 06:11:27;;;;;;;22.77;14.45;;;;;;;11.06;59.79;99088.81;4396875;32;20110;-87
2020/12/11 06:13:56;;;;;;;19.95;13.88;;;;;;;10.97;59.78;99090.97;4396985;32;20102;-87
2020/12/11 06:16:22;;;;;;;23.08;15.70;;;;;;;11.22;59.80;99082.91;4396432;32;20147;-87
2020/12/11 06:18:47;;;;;;;22.75;14.00;;;;;;;11.18;59.79;99089.19;4396336;32;20138;-87
2020/12/11 06:21:16;;;;;;;24.17;15.52;;;;;;;11.05;59.79;99086.28;4395487;32;20129;-87
2020/12/11 06:23:41;;;;;;;23.50;14.02;;;;;;;10.90;59.78;99089.56;4396424;32;20175;-87
2020/12/11 06:26:06;;;;;;;21.60;14.70;;;;;;;10.85;59.77;99088.91;4396195;32;20153;-86
2020/12/11 06:28:35;;;;;;;23.42;15.48;;;;;;;10.90;59.78;99079.16;4395603;32;28577;-87
2020/12/11 06:31:03;;;;;;;21.77;13.80;;;;;;;11.10;59.79;99070.44;4408884;32;20113;-86
2020/12/11 06:33:30;;;;;;;21.52;14.05;;;;;;;11.04;59.79;99064.59;4396632;32;20120;-86
2020/12/11 06:35:58;;;;;;;22.75;14.85;;;;;;;10.90;59.78;99064.37;4396119;32;20531;-87
2020/12/11 06:38:49;;;;;;;21.35;14.50;;;;;;;11.02;59.79;99061.22;4395824;32;20110;-85
2020/12/11 06:41:34;;;;;;;27.75;16.87;;;;;;;11.04;59.79;99063.75;4409460;32;20465;-86
2020/12/11 06:44:09;;;;;;;24.00;16.10;;;;;;;10.89;59.78;99054.03;4406280;32;20094;-86
2020/12/11 06:46:34;;;;;;;29.12;18.92;;;;;;;10.91;59.78;99057.41;4408222;32;20093;-86
2020/12/11 06:49:17;;;;;;;26.33;16.50;;;;;;;11.15;59.79;99061.53;4395369;32;20125;-86
2020/12/11 06:51:42;;;;;;;23.70;15.18;;;;;;;11.07;59.80;99059.25;4396031;32;20093;-87
2020/12/11 06:54:07;;;;;;;23.17;15.83;;;;;;;10.96;59.79;99061.50;4407949;32;20132;-86
2020/12/11 06:56:43;;;;;;;23.33;14.60;;;;;;;10.88;59.78;99068.78;4394930;32;24453;-85
2020/12/11 06:59:25;;;;;;;23.08;14.87;;;;;;;10.99;59.79;99070.94;4408445;32;20425;-85
2020/12/11 07:01:54;;;;;;;23.60;15.15;;;;;;;10.96;59.79;99076.28;4395606;32;20207;-86
2020/12/11 07:04:19;;;;;;;24.67;15.38;;;;;;;10.68;59.77;99076.63;4408247;32;20159;-86
2020/12/11 07:06:48;;;;;;;23.40;15.00;;;;;;;10.65;59.77;99081.97;4395781;32;20090;-86
2020/12/11 07:09:14;;;;;;;21.83;14.73;;;;;;;10.82;59.78;99073.41;4408277;32;20073;-87
2020/12/11 07:11:40;;;;;;;24.55;15.23;;;;;;;11.04;59.79;99076.78;4395062;32;20797;-86
2020/12/11 07:14:05;;;;;;;31.25;19.58;;;;;;;11.08;59.80;99073.09;4395343;32;20120;-86
2020/12/11 07:16:30;;;;;;;29.40;18.05;;;;;;;10.94;59.79;99075.50;4393098;32;29784;-87
2020/12/11 07:18:56;;;;;;;22.83;15.18;;;;;;;10.96;59.79;99081.47;4380556;32;27656;-87
2020/12/11 07:21:27;;;;;;;30.35;17.45;;;;;;;10.92;59.79;99077.34;4393160;32;20145;-84
2020/12/11 07:23:53;;;;;;;29.27;16.50;;;;;;;10.94;59.79;99067.69;4405662;32;20117;-83
2020/12/11 07:26:18;;;;;;;23.85;14.98;;;;;;;11.03;59.79;99072.47;4406205;32;20346;-86
2020/12/11 07:28:44;;;;;;;25.73;16.37;;;;;;;11.19;59.80;99076.09;4393995;32;29248;-87
2020/12/11 07:31:12;;;;;;;28.20;16.10;;;;;;;11.07;59.79;99074.03;4393613;32;28243;-85
2020/12/11 07:33:38;;;;;;;26.73;15.70;;;;;;;11.12;59.79;99081.63;4396399;32;20094;-85
2020/12/11 07:36:03;;;;;;;23.98;15.63;;;;;;;11.23;59.80;99080.25;4408462;32;20106;-85
2020/12/11 07:38:29;;;;;;;22.73;15.05;;;;;;;11.31;59.81;99077.28;4408587;32;20101;-85
2020/12/11 07:40:55;;;;;;;24.55;16.33;;;;;;;11.39;59.81;99077.78;4408894;32;20406;-86
2020/12/11 07:43:21;;;;;;;23.50;14.85;;;;;;;11.26;59.80;99080.09;4408501;32;20525;-85
2020/12/11 07:45:48;;;;;;;23.67;15.85;;;;;;;11.51;59.81;99078.97;4396139;32;20161;-85
2020/12/11 07:48:14;;;;;;;25.95;16.00;;;;;;;11.46;59.82;99080.97;4395742;32;20102;-86
2020/12/11 07:50:39;;;;;;;27.45;16.23;;;;;;;11.61;59.82;99077.66;4395041;32;20110;-85
2020/12/11 07:53:08;;;;;;;28.60;15.30;;;;;;;11.44;59.81;99078.41;4406945;32;20126;-86
2020/12/11 07:55:34;;;;;;;26.87;16.33;;;;;;;11.58;59.82;99077.75;4407046;32;20090;-86
2020/12/11 07:58:01;;;;;;;25.80;15.77;;;;;;;11.22;59.79;99081.16;4394789;32;20198;-86
2020/12/11 08:00:26;;;;;;;17.20;12.40;;;;;;;11.44;59.81;99081.03;4395148;32;20094;-85
2020/12/11 08:03:09;;;;;;;16.27;11.85;;;;;;;11.54;59.82;99081.44;4395518;32;20144;-85
2020/12/11 08:05:36;;;;;;;10.73;6.82;;;;;;;11.64;59.82;99077.50;4396536;32;20117;-87
2020/12/11 08:08:02;;;;;;;10.85;7.95;;;;;;;11.59;59.83;99082.94;4381496;32;20110;-85
2020/12/11 08:10:35;;;;;;;10.32;7.95;;;;;;;11.66;59.82;99073.91;4394591;32;20203;-85
2020/12/11 08:13:11;;;;;;;11.68;7.87;;;;;;;11.34;59.81;99064.09;4383430;32;20101;-85
2020/12/11 08:15:36;;;;;;;11.38;8.40;;;;;;;11.63;59.82;99074.06;4383201;32;20145;-86
2020/12/11 08:18:05;;;;;;;12.80;9.07;;;;;;;11.69;59.83;99065.94;4382619;32;20136;-87
2020/12/11 08:20:47;;;;;;;12.80;8.77;;;;;;;11.73;59.83;99069.22;4407858;32;20122;-86
2020/12/11 08:23:20;;;;;;;10.30;7.70;;;;;;;12.11;59.85;99071.81;4384257;32;20091;-86
2020/12/11 08:25:45;;;;;;;10.85;8.15;;;;;;;11.91;59.84;99063.19;4384051;32;20098;-87
2020/12/11 08:28:11;;;;;;;12.25;8.13;;;;;;;11.79;59.83;99070.72;4383929;32;20101;-86
2020/12/11 08:30:36;;;;;;;13.60;8.75;;;;;;;11.75;59.82;99058.72;4396412;32;20834;-87
2020/12/11 08:33:11;;;;;;;13.75;9.82;;;;;;;11.58;59.82;99060.38;4383632;32;25351;-88
2020/12/11 08:35:36;;;;;;;15.45;10.13;;;;;;;11.72;59.83;99057.13;4385040;32;20146;-88
2020/12/11 08:38:02;;;;;;;16.00;10.70;;;;;;;11.54;59.82;99052.75;4396930;32;20157;-88
2020/12/11 08:40:29;;;;;;;17.17;11.63;;;;;;;11.84;59.84;99051.38;4409872;32;20497;-88
2020/12/11 08:43:00;;;;;;;18.52;12.27;;;;;;;11.75;59.83;99051.75;4408563;32;20090;-88
2020/12/11 08:45:36;;;;;;;16.60;10.98;;;;;;;11.98;59.85;99051.53;4395754;32;20094;-88
2020/12/11 08:50:45;;;;;;;13.13;10.32;;;;;;;12.28;59.85;99035.25;4408760;32;20128;-88
2020/12/11 08:53:12;;;;;;;14.52;10.50;;;;;;;11.99;59.84;99032.34;4396066;32;20666;-88
2020/12/11 08:55:38;;;;;;;14.68;10.65;;;;;;;12.19;59.85;99041.78;4395545;32;20102;-88
2020/12/11 08:58:04;;;;;;;13.55;10.57;;;;;;;12.15;59.85;99044.62;4395324;32;20121;-88
2020/12/11 09:00:29;;;;;;;15.30;11.07;;;;;;;12.19;59.85;99039.19;4395524;32;20160;-88
2020/12/11 09:02:55;;;;;;;16.05;11.43;;;;;;;12.05;59.84;99038.16;4395475;32;20144;-88
2020/12/11 09:05:24;;;;;;;16.30;11.35;;;;;;;11.99;59.84;99032.34;4395242;32;20144;-87
2020/12/11 09:07:51;;;;;;;16.65;11.00;;;;;;;12.13;59.84;99036.03;4395793;32;20160;-88
2020/12/11 09:10:17;;;;;;;15.80;11.18;;;;;;;12.43;59.86;99031.88;4408513;32;20110;-88
2020/12/11 09:12:46;;;;;;;15.13;11.15;;;;;;;12.19;59.85;99044.41;4395415;32;20124;-88
2020/12/11 09:15:11;;;;;;;13.57;10.48;;;;;;;12.19;59.85;99043.56;4395743;32;20093;-88
2020/12/11 09:17:37;;;;;;;15.50;10.57;;;;;;;12.11;59.85;99038.72;4395141;32;20518;-88
2020/12/11 09:20:02;;;;;;;16.98;11.50;;;;;;;12.38;59.86;99031.28;4395261;32;20565;-88
2020/12/11 09:22:28;;;;;;;17.23;12.02;;;;;;;12.34;59.86;99026.31;4395543;32;20090;-88
2020/12/11 09:24:53;;;;;;;17.17;12.35;;;;;;;12.08;59.84;99023.25;4395047;32;20145;-88
2020/12/11 09:27:19;;;;;;;15.40;10.07;;;;;;;12.25;59.85;99023.22;4394612;32;25244;-88
2020/12/11 09:29:47;;;;;;;13.73;10.43;;;;;;;12.45;59.86;99011.78;4395413;32;20164;-88
2020/12/11 09:32:21;;;;;;;19.65;12.45;;;;;;;12.55;59.87;99014.78;4395494;32;20098;-88
2020/12/11 09:34:46;;;;;;;20.80;13.30;;;;;;;12.15;59.85;99014.19;4396334;32;20546;-88
2020/12/11 09:37:12;;;;;;;22.15;14.68;;;;;;;12.09;59.85;99006.66;4394957;32;20187;-88
2020/12/11 09:39:37;;;;;;;21.50;14.82;;;;;;;12.35;59.86;99010.56;4394989;32;20207;-87
2020/12/11 09:55:04;;;;;;;25.55;16.62;;;;;;;12.18;59.85;98987.94;4407054;32;20454;-88
2020/12/11 09:57:30;;;;;;;23.80;16.77;;;;;;;12.22;59.85;98983.38;4394930;32;20201;-88
2020/12/11 09:59:58;;;;;;;31.05;21.65;;;;;;;12.09;59.85;98977.97;4394472;32;25939;-88
2020/12/11 10:02:40;;;;;;;33.00;21.75;;;;;;;12.42;59.86;98982.38;4395388;32;20098;-88
2020/12/11 10:05:06;;;;;;;29.98;19.35;;;;;;;12.65;59.87;98978.56;4396864;32;20110;-88
2020/12/11 10:07:31;;;;;;;25.40;16.80;;;;;;;12.73;59.89;98977.22;4394732;32;20122;-88
2020/12/11 10:09:58;;;;;;;25.92;17.33;;;;;;;12.53;59.88;98975.66;4394981;32;20117;-88
2020/12/11 10:12:24;;;;;;;26.00;17.77;;;;;;;12.58;59.88;98965.84;4396119;32;20094;-88
2020/12/11 10:15:05;;;;;;;25.05;17.62;;;;;;;12.62;59.88;98970.91;4395470;32;20094;-88
2020/12/11 10:17:30;;;;;;;26.73;17.00;;;;;;;12.58;59.88;98970.22;4396645;32;20171;-88
2020/12/11 10:19:56;;;;;;;25.35;16.83;;;;;;;12.40;59.86;98974.63;4394770;32;20137;-88
2020/12/11 10:22:21;;;;;;;24.45;15.82;;;;;;;12.55;59.87;98976.44;4395269;32;20098;-88
2020/12/11 10:24:47;;;;;;;23.87;15.38;;;;;;;12.48;59.87;98971.59;4394348;32;28390;-88
2020/12/11 10:27:13;;;;;;;22.92;15.88;;;;;;;12.42;59.86;98964.09;4394761;32;20204;-88
2020/12/11 10:29:38;;;;;;;23.08;15.75;;;;;;;12.23;59.86;98962.44;4394969;32;20567;-88
2020/12/11 10:32:05;;;;;;;20.80;14.55;;;;;;;12.41;59.86;98952.81;4395311;32;20178;-88
2020/12/11 10:34:30;;;;;;;20.65;14.77;;;;;;;12.38;59.86;98941.72;4407299;32;20098;-88
2020/12/11 10:36:55;;;;;;;27.55;18.40;;;;;;;12.40;59.86;98950.28;4394791;32;20142;-88
2020/12/11 10:39:21;;;;;;;25.95;15.98;;;;;;;12.21;59.86;98950.41;4393781;32;31657;-88
2020/12/11 10:41:46;;;;;;;25.23;14.85;;;;;;;12.37;59.87;98945.25;4394903;32;20130;-88
2020/12/11 10:44:11;;;;;;;21.83;14.80;;;;;;;12.34;59.86;98950.63;4407291;32;20473;-88
2020/12/11 10:46:37;;;;;;;25.10;15.65;;;;;;;11.97;59.84;98953.34;4394355;32;20200;-88
2020/12/11 10:49:02;;;;;;;23.48;16.58;;;;;;;12.14;59.85;98952.47;4394677;32;20184;-88
2020/12/11 10:51:28;;;;;;;24.42;16.83;;;;;;;12.35;59.86;98942.72;4394711;32;20156;-88
2020/12/11 10:53:53;;;;;;;19.25;13.62;;;;;;;12.19;59.85;98944.41;4407279;32;20109;-88
2020/12/11 10:56:19;;;;;;;19.17;13.48;;;;;;;12.11;59.85;98946.59;4395235;32;20688;-88
2020/12/11 10:58:45;;;;;;;37.83;22.08;;;;;;;12.09;59.85;98946.66;4394393;32;20117;-88
2020/12/11 11:01:11;;;;;;;21.23;13.95;;;;;;;12.13;59.84;98942.13;4393719;32;20489;-85
2020/12/11 11:03:36;;;;;;;26.67;17.00;;;;;;;12.10;59.85;98945.75;4392245;32;22562;-85
2020/12/11 11:06:18;;;;;;;21.95;14.30;;;;;;;11.91;59.84;98944.97;4404776;32;20141;-85
2020/12/11 11:09:30;;;;;;;25.58;19.48;;;;;;;11.64;59.82;98932.38;4405598;32;20123;-85
2020/12/11 11:11:39;;;;;;;27.75;17.75;;;;;;;11.64;59.82;98934.13;4401643;32;20118;-85
2020/12/11 11:14:20;;;;;;;25.42;17.33;;;;;;;11.68;59.83;98931.28;4404846;32;20116;-86
2020/12/11 11:30:25;;;;;;;33.38;19.40;;;;;;;11.91;59.84;98914.53;4395937;32;20101;-86
2020/12/11 11:32:51;;;;;;;32.85;21.33;;;;;;;11.90;59.83;98906.78;4392301;32;20155;-85
2020/12/11 11:35:17;;;;;;;38.78;22.30;;;;;;;11.79;59.83;98906.47;4404914;32;20169;-86
2020/12/11 11:37:43;;;;;;;43.47;25.27;;;;;;;11.89;59.83;98905.94;4391860;32;20173;-85
2020/12/11 11:40:08;;;;;;;39.20;21.50;;;;;;;11.78;59.83;98904.75;4404704;32;20125;-86
2020/12/11 11:42:33;;;;;;;56.10;26.45;;;;;;;11.88;59.83;98904.25;4405306;32;20082;-87
2020/12/11 11:45:03;;;;;;;34.85;19.77;;;;;;;11.94;59.84;98900.47;4392987;32;20158;-85